ADDS METAR Data INFO
IDs: Format: Raw Decoded Include TAF

Data at: 0513 UTC 22 Jul 2017

KEDC 220455Z AUTO 00000KT 29/23 A2998 RMK AO2
KEDC 220435Z AUTO 18008G14KT 29/23 A2998 RMK AO2
KEDC 220415Z AUTO 17005KT 29/22 A2997 RMK AO2
KEDC 220355Z AUTO 17006KT 30/22 A2997 RMK AO2
KEDC 220335Z AUTO 16007KT 30/22 A2996 RMK AO2
KEDC 220315Z AUTO 16006KT 30/22 A2995 RMK AO2
KEDC 220255Z AUTO 15009KT 31/22 A2995 RMK AO2
KEDC 220235Z AUTO 15010G15KT 32/22 A2994 RMK AO2
KEDC 220215Z AUTO 14008KT 32/20 A2993 RMK AO2
KEDC 220155Z AUTO 00000KT 32/19 A2991 RMK AO2
KEDC 220135Z AUTO 16005KT 33/19 A2991 RMK AO2
KEDC 220115Z AUTO 15007KT 34/19 A2991 RMK AO2
KEDC 220055Z AUTO 15006KT 34/19 A2991 RMK AO2
KEDC 220035Z AUTO 16005KT 35/18 A2991 RMK AO2
KEDC 220015Z AUTO 20004KT 35/18 A2991 RMK AO2
KEDC 212355Z AUTO 18004KT 36/18 A2991 RMK AO2
KEDC 212335Z AUTO 18005KT 36/18 A2991 RMK AO2
KEDC 212315Z AUTO 17003KT 37/19 A2991 RMK AO2
KEDC 212255Z AUTO 20007KT 37/19 A2992 RMK AO2
KEDC 212235Z AUTO 15008KT 37/19 A2992 RMK AO2
KEDC 212215Z AUTO 00000KT 37/19 A2993 RMK AO2
KEDC 212155Z AUTO 24006KT 37/18 A2994 RMK AO2
KEDC 212135Z AUTO 00000KT 37/19 A2994 RMK AO2
KEDC 212115Z AUTO 00000KT 37/18 A2995 RMK AO2
KEDC 212055Z AUTO 22004KT 36/18 A2996 RMK AO2
KEDC 212035Z AUTO 20006KT 37/19 A2997 RMK AO2
KEDC 212015Z AUTO 22007KT 37/19 A2997 RMK AO2
KEDC 211955Z AUTO 19003KT 36/19 A2999 RMK AO2
KEDC 211935Z AUTO 18008KT 36/19 A2999 RMK AO2
KEDC 211915Z AUTO 19007KT 160V230 35/19 A3000 RMK AO2
KEDC 211855Z AUTO 21008KT 35/20 A3001 RMK AO2
KEDC 211835Z AUTO 18004KT 35/20 A3002 RMK AO2
KEDC 211815Z AUTO 15007KT 34/20 A3002 RMK AO2
KEDC 211755Z AUTO 19005KT 34/20 A3003 RMK AO2
KEDC 211735Z AUTO 15004KT 34/20 A3004 RMK AO2
KEDC 211715Z AUTO 19008KT 170V260 33/21 A3005 RMK AO2
KEDC 211655Z AUTO 20006KT 33/20 A3005 RMK AO2
KEDC 211635Z AUTO 21007KT 32/21 A3005 RMK AO2
KEDC 211615Z AUTO 20008KT 32/22 A3005 RMK AO2
KEDC 211555Z AUTO 18008KT 160V230 31/22 A3006 RMK AO2
KEDC 211535Z AUTO 20007KT 31/22 A3006 RMK AO2
KEDC 211515Z AUTO 20008KT 170V230 30/23 A3006 RMK AO2
KEDC 211455Z AUTO 19005KT 29/23 A3006 RMK AO2
KEDC 211435Z AUTO 20007KT 29/23 A3007 RMK AO2
KEDC 211415Z AUTO 21006KT 28/23 A3006 RMK AO2
KEDC 211355Z AUTO 22005KT 28/24 A3006 RMK AO2
KEDC 211335Z AUTO 21007KT 27/24 A3006 RMK AO2
KEDC 211315Z AUTO 00000KT 26/25 A3006 RMK AO2
KEDC 211255Z AUTO 00000KT 25/25 A3005 RMK AO2
KEDC 211235Z AUTO 00000KT 24/24 A3004 RMK AO2
KEDC 211215Z AUTO 00000KT 23/23 A3004 RMK AO2
KEDC 211155Z AUTO 00000KT 23/23 A3004 RMK AO2
KEDC 211135Z AUTO 00000KT 23/23 A3003 RMK AO2
KEDC 211115Z AUTO 00000KT 24/24 A3002 RMK AO2
KEDC 211035Z AUTO 00000KT A3001 RMK AO2
KEDC 211015Z AUTO 00000KT 24/24 A3002 RMK AO2
KEDC 210955Z AUTO 00000KT 24/24 A3002 RMK AO2
KEDC 210935Z AUTO 00000KT 24/24 A3002 RMK AO2
KEDC 210915Z AUTO 00000KT 25/24 A3003 RMK AO2
KEDC 210855Z AUTO 00000KT 25/23 A3003 RMK AO2
KEDC 210835Z AUTO 00000KT 25/23 A3003 RMK AO2
KEDC 210815Z AUTO 00000KT 25/23 A3003 RMK AO2
KEDC 210755Z AUTO 00000KT 25/23 A3003 RMK AO2
KEDC 210735Z AUTO 00000KT 26/23 A3004 RMK AO2
KEDC 210715Z AUTO 00000KT 26/23 A3004 RMK AO2
KEDC 210655Z AUTO 00000KT 27/23 A3004 RMK AO2
KEDC 210635Z AUTO 00000KT 27/23 A3005 RMK AO2
KEDC 210615Z AUTO 00000KT 27/23 A3005 RMK AO2
KEDC 210555Z AUTO 00000KT 27/23 A3005 RMK AO2
KEDC 210535Z AUTO 00000KT A3005 RMK AO2
KEDC 210455Z AUTO 00000KT 28/23 A3005 RMK AO2
KEDC 210435Z AUTO 17004KT 29/23 A3004 RMK AO2
KEDC 210415Z AUTO 15007KT 29/23 A3003 RMK AO2
KEDC 210355Z AUTO 15008KT 29/23 A3003 RMK AO2
KEDC 210335Z AUTO 16008KT 30/23 A3002 RMK AO2
KEDC 210315Z AUTO 16006KT 30/22 A3001 RMK AO2
KEDC 210255Z AUTO 15006KT 31/21 A3001 RMK AO2
KEDC 210235Z AUTO 15003KT 31/20 A2999 RMK AO2
KEDC 210215Z AUTO 00000KT 31/20 A2999 RMK AO2
KEDC 210155Z AUTO 00000KT 32/19 A2998 RMK AO2
KEDC 210135Z AUTO 00000KT 32/19 A2998 RMK AO2
KEDC 210115Z AUTO 00000KT 33/19 A2998 RMK AO2
KEDC 210055Z AUTO 00000KT 35/19 A2997 RMK AO2
KEDC 210035Z AUTO 17006KT 35/19 A2997 RMK AO2
KEDC 210015Z AUTO 15009KT 36/19 A2997 RMK AO2
KEDC 202355Z AUTO 16007KT 140V210 36/19 A2997 RMK AO2
KEDC 202335Z AUTO 00000KT 37/19 A2998 RMK AO2
KEDC 202315Z AUTO 00000KT 37/18 A2998 RMK AO2
KEDC 202255Z AUTO 20004KT 37/19 A2999 RMK AO2
KEDC 202235Z AUTO 00000KT 37/18 A3000 RMK AO2
KEDC 202215Z AUTO 00000KT 37/19 A3001 RMK AO2
KEDC 202155Z AUTO 00000KT 9SM 37/19 A3001 RMK AO2
KEDC 202135Z AUTO 19005KT 7SM 37/19 A3002 RMK AO2
KEDC 202115Z AUTO 00000KT 36/19 A3003 RMK AO2
KEDC 202055Z AUTO 00000KT 37/19 A3004 RMK AO2
KEDC 202035Z AUTO 14004KT 36/19 A3005 RMK AO2
KEDC 202015Z AUTO 21004KT 36/19 A3005 RMK AO2
KEDC 201955Z AUTO 22006KT 35/20 A3006 RMK AO2
KEDC 201935Z AUTO 17006KT 35/20 A3007 RMK AO2
KEDC 201915Z AUTO 15004KT 35/19 A3008 RMK AO2
KEDC 201855Z AUTO 00000KT 35/20 A3009 RMK AO2
KEDC 201835Z AUTO 00000KT 34/20 A3009 RMK AO2
KEDC 201815Z AUTO 22008KT 34/20 A3010 RMK AO2
KEDC 201755Z AUTO 22003KT 34/20 A3011 RMK AO2
KEDC 201735Z AUTO 19003KT 33/20 A3012 RMK AO2
KEDC 201715Z AUTO 21007KT 33/20 A3012 RMK AO2